Time;durP1;ratioP1;P1;durP2;ratioP2;P2;SDS_P1;SDS_P2;PMS_P1;PMS_P2;Temp;Humidity;BMP_temperature;BMP_pressure;BME280_temperature;BME280_humidity;BME280_pressure;Samples;Min_cycle;Max_cycle;Signal;HPM_P1;HPM_P2
2020/12/09 00:00:10;;;;;;;27.90;16.77;;;;;;;;;;5073873;28;20242;-57
2020/12/09 00:05:24;;;;;;;29.60;17.85;;;;;;;;;;5049737;28;20229;-50
2020/12/09 00:08:22;;;;;;;27.02;19.63;;;;;;;;;;5074546;28;20196;-53
2020/12/09 00:10:55;;;;;;;26.15;16.63;;;;;;;;;;5074434;28;20214;-56
2020/12/09 00:13:22;;;;;;;25.05;16.90;;;;;;;;;;5073167;28;20232;-54
2020/12/09 00:16:07;;;;;;;28.60;18.95;;;;;;;;;;5073538;28;20353;-49
2020/12/09 00:18:43;;;;;;;26.52;18.40;;;;;;;;;;5074058;28;20232;-54
2020/12/09 00:21:12;;;;;;;30.60;19.85;;;;;;;;;;5054513;28;20260;-57
2020/12/09 00:23:59;;;;;;;26.17;18.33;;;;;;;;;;5053532;28;20243;-48
2020/12/09 00:26:33;;;;;;;34.03;21.30;;;;;;;;;;5052798;28;20225;-55
2020/12/09 00:31:44;;;;;;;28.50;19.42;;;;;;;;;;5063085;28;20219;-54
2020/12/09 00:37:33;;;;;;;31.15;19.73;;;;;;;;;;5070585;28;20218;-57
2020/12/09 00:40:08;;;;;;;27.92;17.23;;;;;;;;;;5073139;28;20201;-50
2020/12/09 00:42:35;;;;;;;29.08;18.15;;;;;;;;;;5073241;28;20228;-54
2020/12/09 00:45:02;;;;;;;28.98;19.02;;;;;;;;;;5074270;28;20262;-50
2020/12/09 00:47:40;;;;;;;27.50;18.48;;;;;;;;;;5074402;28;20212;-55
2020/12/09 00:50:37;;;;;;;27.83;18.08;;;;;;;;;;5073223;28;20200;-51
2020/12/09 00:53:07;;;;;;;31.65;18.60;;;;;;;;;;5071719;28;20197;-58
2020/12/09 00:55:34;;;;;;;29.52;18.27;;;;;;;;;;5064679;28;20219;-55
2020/12/09 00:58:03;;;;;;;26.20;18.10;;;;;;;;;;5073364;28;20186;-56
2020/12/09 01:03:55;;;;;;;26.90;18.90;;;;;;;;;;5072484;28;20236;-53
2020/12/09 01:06:34;;;;;;;;;;;;;;;;;;;;;
2020/12/09 01:09:12;;;;;;;28.23;18.20;;;;;;;;;;5058158;28;20229;-54
2020/12/09 01:11:39;;;;;;;36.20;20.73;;;;;;;;;;5072124;28;20212;-56
2020/12/09 01:17:31;;;;;;;31.77;20.73;;;;;;;;;;5071156;28;20251;-56
2020/12/09 01:19:59;;;;;;;33.83;20.67;;;;;;;;;;5067992;28;20215;-49
2020/12/09 01:22:31;;;;;;;33.95;20.42;;;;;;;;;;5072260;28;20212;-47
2020/12/09 01:25:08;;;;;;;32.10;21.27;;;;;;;;;;5070799;28;20675;-59
2020/12/09 01:27:34;;;;;;;34.90;22.83;;;;;;;;;;5071921;28;20201;-53
2020/12/09 01:30:10;;;;;;;30.73;20.67;;;;;;;;;;5072317;28;20198;-48
2020/12/09 01:32:46;;;;;;;36.80;22.40;;;;;;;;;;5071302;28;20213;-55
2020/12/09 01:35:28;;;;;;;33.55;20.92;;;;;;;;;;5070063;28;20215;-54
2020/12/09 01:38:06;;;;;;;36.03;22.17;;;;;;;;;;5072138;28;20204;-45
2020/12/09 01:40:44;;;;;;;34.17;20.25;;;;;;;;;;5075374;28;20654;-52
2020/12/09 01:45:52;;;;;;;34.60;21.00;;;;;;;;;;5073948;28;20225;-54
2020/12/09 01:48:19;;;;;;;32.88;20.90;;;;;;;;;;5070339;28;20408;-52
2020/12/09 01:50:46;;;;;;;34.45;22.02;;;;;;;;;;5070284;28;20240;-56
2020/12/09 01:53:15;;;;;;;32.45;20.45;;;;;;;;;;5073832;28;20220;-48
2020/12/09 01:55:42;;;;;;;29.85;18.27;;;;;;;;;;5076365;28;20474;-54
2020/12/09 01:58:12;;;;;;;29.88;18.33;;;;;;;;;;5076199;28;20212;-51
2020/12/09 02:00:55;;;;;;;31.75;19.67;;;;;;;;;;5075199;28;20201;-53
2020/12/09 02:03:26;;;;;;;27.10;18.77;;;;;;;;;;5076699;28;20200;-60
2020/12/09 02:06:05;;;;;;;32.80;19.65;;;;;;;;;;5058504;28;20218;-52
2020/12/09 02:08:33;;;;;;;30.52;18.98;;;;;;;;;;5066384;28;20504;-56
2020/12/09 02:11:08;;;;;;;27.90;19.45;;;;;;;;;;5077006;28;20263;-53
2020/12/09 02:13:53;;;;;;;32.22;20.92;;;;;;;;;;5076326;28;20192;-56
2020/12/09 02:16:20;;;;;;;34.50;20.33;;;;;;;;;;5070954;28;20196;-55
2020/12/09 02:18:47;;;;;;;30.67;17.95;;;;;;;;;;5055685;28;20256;-54
2020/12/09 02:21:53;;;;;;;35.22;22.33;;;;;;;;;;5051555;28;20210;-55
2020/12/09 02:24:26;;;;;;;31.23;20.45;;;;;;;;;;5047712;28;20214;-52
2020/12/09 02:27:20;;;;;;;31.75;20.17;;;;;;;;;;5054628;28;20233;-57
2020/12/09 02:29:47;;;;;;;30.20;20.75;;;;;;;;;;5053459;28;20359;-52
2020/12/09 02:32:33;;;;;;;34.15;19.13;;;;;;;;;;5047381;28;20229;-53
2020/12/09 02:35:00;;;;;;;32.35;20.00;;;;;;;;;;5036113;28;20198;-56
2020/12/09 02:37:49;;;;;;;30.73;18.55;;;;;;;;;;5054645;28;20210;-52
2020/12/09 02:40:22;;;;;;;37.50;21.52;;;;;;;;;;5052716;28;20264;-50
2020/12/09 02:42:49;;;;;;;41.88;27.13;;;;;;;;;;5034887;28;20215;-48
2020/12/09 02:45:26;;;;;;;31.95;22.13;;;;;;;;;;5035007;28;20218;-50
2020/12/09 02:48:07;;;;;;;34.63;23.13;;;;;;;;;;5033693;28;20205;-47
2020/12/09 02:50:52;;;;;;;48.92;33.45;;;;;;;;;;5046896;28;20197;-51
2020/12/09 02:53:19;;;;;;;35.42;22.48;;;;;;;;;;5054294;28;20236;-48
2020/12/09 02:55:46;;;;;;;33.45;21.13;;;;;;;;;;5053890;28;20234;-53
2020/12/09 02:58:15;;;;;;;41.25;25.05;;;;;;;;;;5055326;28;20198;-51
2020/12/09 03:00:41;;;;;;;48.13;27.08;;;;;;;;;;5064375;28;20278;-49
2020/12/09 03:03:08;;;;;;;38.67;24.25;;;;;;;;;;5054423;28;20213;-52
2020/12/09 03:05:36;;;;;;;32.38;21.90;;;;;;;;;;5061369;28;20204;-52
2020/12/09 03:11:07;;;;;;;30.60;21.63;;;;;;;;;;5071596;28;20204;-50
2020/12/09 03:14:05;;;;;;;34.83;22.23;;;;;;;;;;5074746;28;20243;-49
2020/12/09 03:16:37;;;;;;;34.75;21.00;;;;;;;;;;5073326;28;20229;-47
2020/12/09 03:19:17;;;;;;;36.75;21.75;;;;;;;;;;5072618;28;20240;-54
2020/12/09 03:21:44;;;;;;;35.28;21.75;;;;;;;;;;5063637;28;20217;-50
2020/12/09 03:30:19;;;;;;;37.53;24.02;;;;;;;;;;5065058;28;20230;-52
2020/12/09 03:32:46;;;;;;;35.00;22.63;;;;;;;;;;5068045;28;21433;-48
2020/12/09 03:35:13;;;;;;;35.42;21.70;;;;;;;;;;5071796;28;20302;-55
2020/12/09 03:37:45;;;;;;;34.38;21.55;;;;;;;;;;5073451;28;20459;-54
2020/12/09 03:40:12;;;;;;;33.55;22.80;;;;;;;;;;5055614;28;20213;-54
2020/12/09 03:42:45;;;;;;;40.78;25.95;;;;;;;;;;5060110;28;20202;-47
2020/12/09 03:45:15;;;;;;;32.22;21.00;;;;;;;;;;5031702;28;20229;-52
2020/12/09 03:47:43;;;;;;;33.53;22.08;;;;;;;;;;5073353;28;20278;-57
2020/12/09 03:50:10;;;;;;;37.38;25.40;;;;;;;;;;5065250;28;20229;-49
2020/12/09 03:55:48;;;;;;;35.25;20.05;;;;;;;;;;5072738;28;20184;-58
2020/12/09 03:58:15;;;;;;;33.80;22.13;;;;;;;;;;5073691;28;20201;-53
2020/12/09 04:00:42;;;;;;;34.70;22.02;;;;;;;;;;5074422;28;20224;-50
2020/12/09 04:03:13;;;;;;;32.88;22.90;;;;;;;;;;5072089;28;20213;-54
2020/12/09 04:05:40;;;;;;;36.78;22.80;;;;;;;;;;5072435;28;20220;-50
2020/12/09 04:08:10;;;;;;;30.92;20.60;;;;;;;;;;5056778;28;20313;-53
2020/12/09 04:10:44;;;;;;;31.30;22.38;;;;;;;;;;5032582;28;20203;-52
2020/12/09 04:16:12;;;;;;;30.10;20.10;;;;;;;;;;5024018;28;20211;-53
2020/12/09 04:18:40;;;;;;;28.52;21.08;;;;;;;;;;5036966;28;20309;-54
2020/12/09 04:21:08;;;;;;;33.25;22.55;;;;;;;;;;5044822;28;20199;-57
2020/12/09 04:23:35;;;;;;;35.25;21.83;;;;;;;;;;5044456;28;20203;-54
2020/12/09 04:26:05;;;;;;;33.75;22.92;;;;;;;;;;5059405;28;20234;-53
2020/12/09 04:28:51;;;;;;;32.67;20.85;;;;;;;;;;5036959;28;20210;-57
2020/12/09 04:31:30;;;;;;;32.25;20.90;;;;;;;;;;5033074;28;20303;-58
2020/12/09 04:34:00;;;;;;;35.15;22.65;;;;;;;;;;5049889;28;20245;-59
2020/12/09 04:36:27;;;;;;;33.80;20.70;;;;;;;;;;5051936;28;20205;-50
2020/12/09 04:39:01;;;;;;;30.83;20.42;;;;;;;;;;5053063;28;20489;-54
2020/12/09 04:41:28;;;;;;;33.20;20.30;;;;;;;;;;5016036;28;20260;-57
2020/12/09 04:43:55;;;;;;;36.35;22.45;;;;;;;;;;5033730;28;20211;-50
2020/12/09 04:46:22;;;;;;;37.85;23.83;;;;;;;;;;5055908;28;20229;-54
2020/12/09 04:48:57;;;;;;;36.95;23.75;;;;;;;;;;5063045;28;20213;-58
2020/12/09 04:54:36;;;;;;;41.15;24.10;;;;;;;;;;5041067;28;20243;-53
2020/12/09 05:00:33;;;;;;;40.78;24.15;;;;;;;;;;5039593;28;20193;-51
2020/12/09 05:03:19;;;;;;;37.00;23.00;;;;;;;;;;5048580;28;20309;-53
2020/12/09 05:05:47;;;;;;;41.67;24.73;;;;;;;;;;5053258;28;20253;-49
2020/12/09 05:08:20;;;;;;;40.45;24.83;;;;;;;;;;5046848;28;20273;-55
2020/12/09 05:11:00;;;;;;;46.08;25.77;;;;;;;;;;5049493;28;20212;-52
2020/12/09 05:13:28;;;;;;;42.97;26.00;;;;;;;;;;5057722;28;20202;-55
2020/12/09 05:18:38;;;;;;;40.10;24.70;;;;;;;;;;5066154;28;20271;-49
2020/12/09 05:21:20;;;;;;;40.65;25.67;;;;;;;;;;5061687;28;20211;-52
2020/12/09 05:23:56;;;;;;;39.60;26.05;;;;;;;;;;5072061;28;20254;-50
2020/12/09 05:26:25;;;;;;;44.25;26.33;;;;;;;;;;5069300;28;20240;-54
2020/12/09 05:29:11;;;;;;;40.45;25.65;;;;;;;;;;5061648;28;20207;-54
2020/12/09 05:31:38;;;;;;;43.58;26.35;;;;;;;;;;5063110;28;20273;-53
2020/12/09 05:34:24;;;;;;;43.28;25.42;;;;;;;;;;5068458;28;20337;-56
2020/12/09 05:36:56;;;;;;;40.30;25.42;;;;;;;;;;5051201;28;20202;-58
2020/12/09 05:42:15;;;;;;;47.80;28.67;;;;;;;;;;5049669;28;20216;-53
2020/12/09 05:44:42;;;;;;;44.47;26.75;;;;;;;;;;5069899;28;20254;-54
2020/12/09 05:47:13;;;;;;;43.90;26.23;;;;;;;;;;5068819;28;20241;-58
2020/12/09 05:49:45;;;;;;;39.47;26.77;;;;;;;;;;5064711;28;20220;-55
2020/12/09 05:52:31;;;;;;;40.45;25.42;;;;;;;;;;5068575;28;20236;-52
2020/12/09 05:55:10;;;;;;;38.75;26.40;;;;;;;;;;5071726;28;20192;-49
2020/12/09 05:58:03;;;;;;;42.78;25.45;;;;;;;;;;5067565;28;20236;-58
2020/12/09 06:01:00;;;;;;;40.63;26.50;;;;;;;;;;5059476;28;20212;-55
2020/12/09 06:07:04;;;;;;;43.67;26.38;;;;;;;;;;5026659;28;20242;-54
2020/12/09 06:09:33;;;;;;;42.85;26.30;;;;;;;;;;5055300;28;20635;-52
2020/12/09 06:12:06;;;;;;;44.28;27.50;;;;;;;;;;5066194;28;20233;-52
2020/12/09 06:14:34;;;;;;;49.17;26.42;;;;;;;;;;5071536;28;20209;-49
2020/12/09 06:20:10;;;;;;;47.15;27.48;;;;;;;;;;5065738;28;20224;-52
2020/12/09 06:22:40;;;;;;;41.50;27.45;;;;;;;;;;5067735;28;20216;-56
2020/12/09 06:25:30;;;;;;;45.45;26.80;;;;;;;;;;5063322;28;20209;-52
2020/12/09 06:28:09;;;;;;;42.25;26.73;;;;;;;;;;5057719;28;20279;-49
2020/12/09 06:30:51;;;;;;;46.70;28.02;;;;;;;;;;5073242;28;20219;-56
2020/12/09 06:33:38;;;;;;;39.85;25.35;;;;;;;;;;5080446;28;20201;-56
2020/12/09 06:36:36;;;;;;;50.00;28.20;;;;;;;;;;5059061;28;20204;-60
2020/12/09 06:39:17;;;;;;;45.88;27.20;;;;;;;;;;5064972;28;20282;-55
2020/12/09 06:42:22;;;;;;;54.45;27.00;;;;;;;;;;5074063;28;20208;-59
2020/12/09 06:45:13;;;;;;;38.95;24.75;;;;;;;;;;5058629;28;20232;-56
2020/12/09 06:48:18;;;;;;;46.97;25.10;;;;;;;;;;5065795;28;20271;-58
2020/12/09 06:53:34;;;;;;;39.03;25.55;;;;;;;;;;5082191;28;20212;-61
2020/12/09 06:56:19;;;;;;;46.78;31.02;;;;;;;;;;5077678;28;20606;-52
2020/12/09 06:58:52;;;;;;;46.65;27.63;;;;;;;;;;5070349;28;20205;-59
2020/12/09 07:01:30;;;;;;;40.38;25.05;;;;;;;;;;5052012;28;20224;-53
2020/12/09 07:04:15;;;;;;;42.72;25.13;;;;;;;;;;5043479;28;20221;-55
2020/12/09 07:06:49;;;;;;;38.35;24.30;;;;;;;;;;5047445;28;20257;-52
2020/12/09 07:12:39;;;;;;;36.55;24.55;;;;;;;;;;5010522;28;20200;-60
2020/12/09 07:15:19;;;;;;;37.10;25.98;;;;;;;;;;5042993;28;20197;-50
2020/12/09 07:17:46;;;;;;;40.22;24.33;;;;;;;;;;5054750;28;20208;-59
2020/12/09 07:20:33;;;;;;;43.38;26.48;;;;;;;;;;5043963;28;20347;-50
2020/12/09 07:26:06;;;;;;;40.85;25.27;;;;;;;;;;5075650;28;20229;-53
2020/12/09 07:28:35;;;;;;;41.65;25.40;;;;;;;;;;5078482;28;20214;-49
2020/12/09 07:37:11;;;;;;;42.20;25.20;;;;;;;;;;5086468;28;20226;-54
2020/12/09 07:40:01;;;;;;;41.67;27.05;;;;;;;;;;5094140;28;20220;-55
2020/12/09 07:43:02;;;;;;;42.00;26.70;;;;;;;;;;5092711;28;20254;-54
2020/12/09 07:45:36;;;;;;;44.33;25.83;;;;;;;;;;5093424;28;20302;-58
2020/12/09 07:48:16;;;;;;;37.90;23.83;;;;;;;;;;5076160;28;20224;-51
2020/12/09 07:51:03;;;;;;;41.90;25.38;;;;;;;;;;5079011;28;20223;-53
2020/12/09 07:53:32;;;;;;;41.53;25.63;;;;;;;;;;5082824;28;20197;-55
2020/12/09 07:56:17;;;;;;;39.40;25.85;;;;;;;;;;5085951;28;20212;-55
2020/12/09 07:58:53;;;;;;;42.30;26.27;;;;;;;;;;5083256;28;20208;-55
2020/12/09 08:01:32;;;;;;;37.47;24.95;;;;;;;;;;5083295;28;20211;-55
2020/12/09 08:04:02;;;;;;;40.40;25.42;;;;;;;;;;5088285;28;20204;-53
2020/12/09 08:06:39;;;;;;;38.78;25.38;;;;;;;;;;5087314;28;20258;-53
2020/12/09 08:09:27;;;;;;;;;;;;;;;;;;;;;
2020/12/09 08:15:42;;;;;;;40.22;26.38;;;;;;;;;;4980540;28;20218;-59
2020/12/09 08:18:36;;;;;;;39.20;24.55;;;;;;;;;;4986561;28;20195;-55
2020/12/09 08:24:14;;;;;;;41.72;27.30;;;;;;;;;;5085239;28;20292;-48
2020/12/09 08:26:55;;;;;;;42.63;26.50;;;;;;;;;;5096103;28;20227;-53
2020/12/09 08:29:28;;;;;;;40.00;25.95;;;;;;;;;;5091658;28;20227;-52
2020/12/09 08:32:14;;;;;;;37.53;23.25;;;;;;;;;;5091261;28;20303;-60
2020/12/09 08:35:25;;;;;;;;;;;;;;;;;;;;;
2020/12/09 08:37:54;;;;;;;45.22;27.80;;;;;;;;;;5024896;28;20235;-53
2020/12/09 08:40:27;;;;;;;46.78;27.90;;;;;;;;;;5075219;28;20211;-50
2020/12/09 08:48:34;;;;;;;39.20;26.13;;;;;;;;;;5093215;28;20201;-54
2020/12/09 08:51:01;;;;;;;41.42;25.02;;;;;;;;;;5088730;28;20189;-57
2020/12/09 08:56:34;;;;;;;47.88;28.00;;;;;;;;;;5089768;28;20211;-55
2020/12/09 08:59:04;;;;;;;41.15;27.75;;;;;;;;;;5092614;28;20200;-47
2020/12/09 09:02:19;;;;;;;43.70;24.98;;;;;;;;;;5092216;28;20224;-52
2020/12/09 09:04:49;;;;;;;40.08;26.20;;;;;;;;;;5093159;28;20223;-58
2020/12/09 09:07:24;;;;;;;38.08;25.33;;;;;;;;;;5086438;28;20271;-53
2020/12/09 09:09:51;;;;;;;47.20;27.30;;;;;;;;;;5079313;28;20200;-56
2020/12/09 09:12:18;;;;;;;40.40;26.98;;;;;;;;;;5070039;28;20546;-59
2020/12/09 09:17:50;;;;;;;39.97;26.55;;;;;;;;;;5073718;28;20264;-52
2020/12/09 09:20:29;;;;;;;49.42;24.95;;;;;;;;;;5088944;28;20189;-57
2020/12/09 09:28:36;;;;;;;34.92;24.55;;;;;;;;;;5079027;28;20215;-49
2020/12/09 09:34:09;;;;;;;39.30;26.25;;;;;;;;;;5085592;28;20251;-53
2020/12/09 09:40:15;;;;;;;40.83;26.33;;;;;;;;;;5074333;28;20215;-52
2020/12/09 09:42:45;;;;;;;36.33;24.85;;;;;;;;;;5095059;28;20240;-55
2020/12/09 09:45:33;;;;;;;41.45;27.10;;;;;;;;;;5093984;28;20209;-46
2020/12/09 09:48:43;;;;;;;40.13;27.27;;;;;;;;;;5095415;28;20238;-54
2020/12/09 09:51:12;;;;;;;41.47;26.73;;;;;;;;;;5077013;28;20200;-56
2020/12/09 09:56:38;;;;;;;37.30;25.27;;;;;;;;;;5011097;28;20208;-52
2020/12/09 09:59:19;;;;;;;43.35;27.90;;;;;;;;;;5092413;28;20223;-59
2020/12/09 10:02:03;;;;;;;42.25;26.92;;;;;;;;;;5093838;28;20193;-60
2020/12/09 10:04:29;;;;;;;42.40;28.05;;;;;;;;;;5094878;28;20202;-53
2020/12/09 10:06:59;;;;;;;44.40;28.63;;;;;;;;;;5096352;28;20301;-51
2020/12/09 10:09:28;;;;;;;39.95;26.75;;;;;;;;;;5096494;28;20257;-53
2020/12/09 10:12:05;;;;;;;39.60;28.15;;;;;;;;;;5095769;28;20213;-55
2020/12/09 10:17:41;;;;;;;50.72;32.40;;;;;;;;;;5036332;28;20251;-56
2020/12/09 10:20:13;;;;;;;56.97;30.20;;;;;;;;;;5090678;28;20216;-57
2020/12/09 10:22:56;;;;;;;46.85;30.42;;;;;;;;;;5095857;28;20303;-54
2020/12/09 10:25:23;;;;;;;42.95;28.45;;;;;;;;;;5087355;28;20224;-54
2020/12/09 10:27:52;;;;;;;45.20;28.88;;;;;;;;;;5076787;28;20356;-60
2020/12/09 10:30:20;;;;;;;48.17;30.27;;;;;;;;;;5091350;28;20208;-51
2020/12/09 10:32:47;;;;;;;41.75;28.23;;;;;;;;;;5087923;28;20217;-57
2020/12/09 10:35:16;;;;;;;48.17;29.58;;;;;;;;;;5093907;28;20335;-59
2020/12/09 10:37:43;;;;;;;48.63;30.77;;;;;;;;;;5084555;28;20227;-53
2020/12/09 10:40:20;;;;;;;43.08;27.52;;;;;;;;;;5093397;28;20276;-53
2020/12/09 10:42:58;;;;;;;44.33;29.38;;;;;;;;;;5093303;28;20284;-62
2020/12/09 10:45:28;;;;;;;51.15;30.02;;;;;;;;;;5087394;28;20202;-56
2020/12/09 10:47:56;;;;;;;55.50;33.50;;;;;;;;;;5065879;28;20221;-58
2020/12/09 10:50:24;;;;;;;40.85;27.17;;;;;;;;;;5092579;28;20206;-51
2020/12/09 10:52:52;;;;;;;43.40;29.48;;;;;;;;;;5091568;28;20209;-58
2020/12/09 10:55:23;;;;;;;47.92;31.83;;;;;;;;;;5087574;28;20256;-56
2020/12/09 10:57:52;;;;;;;47.58;31.70;;;;;;;;;;5053626;28;20419;-58
2020/12/09 11:00:19;;;;;;;46.85;29.27;;;;;;;;;;5101124;28;20209;-56
2020/12/09 11:02:54;;;;;;;46.15;27.90;;;;;;;;;;5092902;28;20665;-58
2020/12/09 11:05:38;;;;;;;43.40;29.42;;;;;;;;;;5093662;28;20258;-54
2020/12/09 11:08:14;;;;;;;42.72;28.55;;;;;;;;;;5093892;28;20246;-55
2020/12/09 11:13:34;;;;;;;37.05;24.77;;;;;;;;;;5065246;28;20209;-49
2020/12/09 11:16:11;;;;;;;33.05;23.88;;;;;;;;;;5087907;28;20205;-56
2020/12/09 11:18:59;;;;;;;35.75;24.45;;;;;;;;;;5095720;28;20221;-57
2020/12/09 11:21:28;;;;;;;38.28;26.25;;;;;;;;;;5073255;28;20202;-62
2020/12/09 11:23:59;;;;;;;42.35;27.00;;;;;;;;;;5086161;28;20292;-56
2020/12/09 11:26:28;;;;;;;41.95;26.23;;;;;;;;;;5083400;28;20252;-58
2020/12/09 11:28:55;;;;;;;48.95;27.40;;;;;;;;;;5090952;28;20225;-51
2020/12/09 11:31:31;;;;;;;42.13;26.05;;;;;;;;;;5092491;28;20208;-60
2020/12/09 11:33:59;;;;;;;37.05;26.73;;;;;;;;;;5095115;28;20574;-52
2020/12/09 11:39:45;;;;;;;38.25;25.55;;;;;;;;;;5083672;28;20198;-56
2020/12/09 11:42:15;;;;;;;38.17;25.65;;;;;;;;;;5052818;28;20196;-54
2020/12/09 11:51:01;;;;;;;39.88;28.38;;;;;;;;;;5081512;28;20408;-56
2020/12/09 11:56:45;;;;;;;44.13;28.98;;;;;;;;;;5069144;28;20213;-55
2020/12/09 11:59:14;;;;;;;39.13;27.33;;;;;;;;;;5089015;28;20267;-57
2020/12/09 12:01:47;;;;;;;38.25;26.75;;;;;;;;;;5090154;28;20212;-56
2020/12/09 12:04:20;;;;;;;47.13;28.80;;;;;;;;;;5078896;28;20296;-57
2020/12/09 12:07:00;;;;;;;45.35;29.33;;;;;;;;;;5084715;28;20255;-53
2020/12/09 12:09:42;;;;;;;39.95;26.85;;;;;;;;;;5085623;28;20269;-46
2020/12/09 12:12:17;;;;;;;47.15;31.55;;;;;;;;;;5077674;28;20202;-57
2020/12/09 12:14:45;;;;;;;38.58;27.40;;;;;;;;;;5079557;28;20249;-53
2020/12/09 12:17:35;;;;;;;34.85;24.63;;;;;;;;;;5082499;28;20208;-53
2020/12/09 12:20:34;;;;;;;38.55;26.30;;;;;;;;;;5087239;28;20243;-52
2020/12/09 12:23:42;;;;;;;37.25;25.35;;;;;;;;;;5085110;28;20218;-50
2020/12/09 12:26:24;;;;;;;38.80;25.17;;;;;;;;;;5089602;28;20200;-54
2020/12/09 12:31:32;;;;;;;39.38;26.20;;;;;;;;;;5074332;28;20245;-62
2020/12/09 12:34:08;;;;;;;41.47;29.42;;;;;;;;;;5075613;28;20213;-54
2020/12/09 12:36:37;;;;;;;39.47;24.35;;;;;;;;;;5094114;28;20264;-57
2020/12/09 12:39:06;;;;;;;38.38;25.75;;;;;;;;;;5079554;28;20205;-57
2020/12/09 12:41:49;;;;;;;38.85;26.65;;;;;;;;;;5092444;28;20207;-57
2020/12/09 12:47:39;;;;;;;37.75;24.80;;;;;;;;;;5082558;28;20213;-55
2020/12/09 12:50:09;;;;;;;39.97;24.67;;;;;;;;;;5079876;28;20205;-55
2020/12/09 12:52:44;;;;;;;37.53;22.83;;;;;;;;;;5070843;28;20217;-55
2020/12/09 12:58:13;;;;;;;33.28;21.95;;;;;;;;;;4996923;28;20212;-52
2020/12/09 13:00:47;;;;;;;32.17;20.25;;;;;;;;;;5046988;28;20263;-49
2020/12/09 13:03:14;;;;;;;29.83;21.00;;;;;;;;;;5071695;28;20216;-54
2020/12/09 13:05:54;;;;;;;32.20;20.65;;;;;;;;;;5053536;28;20253;-56
2020/12/09 13:08:28;;;;;;;36.03;22.95;;;;;;;;;;5052184;28;20367;-55
2020/12/09 13:11:02;;;;;;;40.80;24.40;;;;;;;;;;5049754;28;20272;-55
2020/12/09 13:13:35;;;;;;;34.85;23.40;;;;;;;;;;5053439;28;20265;-57
2020/12/09 13:16:12;;;;;;;33.42;21.02;;;;;;;;;;5053136;28;20192;-58
2020/12/09 13:18:56;;;;;;;34.42;21.85;;;;;;;;;;5054288;28;20230;-53
2020/12/09 13:21:28;;;;;;;31.95;21.83;;;;;;;;;;5053975;28;20215;-56
2020/12/09 13:26:51;;;;;;;34.65;21.58;;;;;;;;;;5045354;28;20306;-55
2020/12/09 13:29:25;;;;;;;34.80;22.55;;;;;;;;;;5042193;28;20209;-54
2020/12/09 13:32:17;;;;;;;37.75;25.17;;;;;;;;;;5033192;28;20231;-55
2020/12/09 13:34:56;;;;;;;31.20;19.40;;;;;;;;;;5035276;28;20212;-56
2020/12/09 13:37:32;;;;;;;33.03;21.98;;;;;;;;;;5049374;28;20251;-57
2020/12/09 13:39:59;;;;;;;36.55;24.70;;;;;;;;;;5063271;28;20268;-57
2020/12/09 13:42:27;;;;;;;34.70;23.23;;;;;;;;;;5089528;28;20189;-57
2020/12/09 13:44:59;;;;;;;40.75;23.52;;;;;;;;;;5080858;28;20280;-52
2020/12/09 13:47:38;;;;;;;35.78;22.20;;;;;;;;;;5087214;28;20232;-59
2020/12/09 13:50:15;;;;;;;36.63;22.17;;;;;;;;;;5080375;28;20204;-55
2020/12/09 13:53:03;;;;;;;32.80;19.92;;;;;;;;;;5071059;28;20207;-58
2020/12/09 13:55:50;;;;;;;35.28;20.38;;;;;;;;;;5089650;28;20231;-54
2020/12/09 13:58:18;;;;;;;33.05;19.50;;;;;;;;;;5092270;28;20256;-50
2020/12/09 14:01:09;;;;;;;30.00;18.55;;;;;;;;;;5074338;28;20230;-55
2020/12/09 14:03:38;;;;;;;30.42;19.45;;;;;;;;;;5076870;28;20260;-53
2020/12/09 14:06:04;;;;;;;29.42;18.70;;;;;;;;;;5094585;28;20188;-53
2020/12/09 14:08:34;;;;;;;36.88;21.90;;;;;;;;;;5093834;28;20242;-51
2020/12/09 14:11:08;;;;;;;34.22;20.23;;;;;;;;;;5075111;28;20216;-55
2020/12/09 14:13:39;;;;;;;35.83;20.92;;;;;;;;;;5081635;28;20216;-54
2020/12/09 14:18:33;;;;;;;28.83;19.80;;;;;;;;;;5091713;28;20209;-58
2020/12/09 14:21:06;;;;;;;25.98;18.75;;;;;;;;;;5092662;28;20503;-49
2020/12/09 14:23:34;;;;;;;28.38;19.90;;;;;;;;;;5091952;28;20225;-53
2020/12/09 14:28:45;;;;;;;26.50;18.20;;;;;;;;;;5091483;28;20298;-52
2020/12/09 14:31:30;;;;;;;30.80;20.10;;;;;;;;;;5091645;28;20215;-55
2020/12/09 14:37:25;;;;;;;35.53;19.65;;;;;;;;;;5070870;28;20202;-57
2020/12/09 14:43:08;;;;;;;33.03;21.25;;;;;;;;;;5063890;28;20251;-58
2020/12/09 14:48:39;;;;;;;34.13;18.38;;;;;;;;;;5078384;28;20239;-58
2020/12/09 14:51:20;;;;;;;31.38;19.10;;;;;;;;;;5083194;28;20213;-55
2020/12/09 14:54:02;;;;;;;27.40;18.38;;;;;;;;;;5075780;28;20226;-57
2020/12/09 14:56:43;;;;;;;29.60;18.77;;;;;;;;;;5093226;28;20201;-51
2020/12/09 14:59:22;;;;;;;31.20;20.30;;;;;;;;;;5092690;28;20216;-56
2020/12/09 15:02:00;;;;;;;35.92;20.95;;;;;;;;;;5094046;28;20665;-48
2020/12/09 15:04:27;;;;;;;32.67;21.20;;;;;;;;;;5082196;28;20228;-56
2020/12/09 15:06:56;;;;;;;35.97;23.40;;;;;;;;;;5094572;28;20513;-50
2020/12/09 15:12:54;;;;;;;29.70;20.42;;;;;;;;;;5054331;28;20216;-54
2020/12/09 15:15:29;;;;;;;31.33;20.15;;;;;;;;;;5055181;28;20206;-53
2020/12/09 15:18:18;;;;;;;33.85;22.15;;;;;;;;;;5036642;28;20204;-49
2020/12/09 15:23:46;;;;;;;33.30;19.23;;;;;;;;;;5050334;28;20211;-58
2020/12/09 15:32:58;;;;;;;35.67;19.90;;;;;;;;;;5048672;28;20192;-59
2020/12/09 15:35:40;;;;;;;35.85;22.02;;;;;;;;;;5049992;28;20198;-48
2020/12/09 15:38:11;;;;;;;35.67;21.52;;;;;;;;;;5043572;28;20214;-57
2020/12/09 15:40:50;;;;;;;40.92;23.50;;;;;;;;;;5047232;28;20209;-53
2020/12/09 15:43:20;;;;;;;40.53;24.88;;;;;;;;;;5045904;28;20260;-55
2020/12/09 15:46:01;;;;;;;47.92;25.13;;;;;;;;;;5044241;28;20218;-53
2020/12/09 15:48:35;;;;;;;38.50;24.67;;;;;;;;;;5054680;28;20240;-54
2020/12/09 15:51:10;;;;;;;36.67;21.25;;;;;;;;;;5040511;28;20223;-57
2020/12/09 15:53:38;;;;;;;37.88;23.75;;;;;;;;;;5019013;28;20195;-59
2020/12/09 15:56:15;;;;;;;41.95;20.70;;;;;;;;;;5047580;28;20190;-50
2020/12/09 16:01:47;;;;;;;32.83;20.67;;;;;;;;;;5053027;28;20224;-56
2020/12/09 16:04:14;;;;;;;43.00;24.02;;;;;;;;;;5056202;28;20240;-51
2020/12/09 16:07:04;;;;;;;39.15;21.20;;;;;;;;;;5055575;28;20193;-59
2020/12/09 16:09:36;;;;;;;40.33;22.73;;;;;;;;;;5061865;28;20208;-50
2020/12/09 16:12:26;;;;;;;39.90;21.30;;;;;;;;;;5076307;28;20210;-57
2020/12/09 16:15:13;;;;;;;39.08;20.58;;;;;;;;;;5061759;28;20284;-49
2020/12/09 16:17:43;;;;;;;37.33;22.00;;;;;;;;;;5060285;28;20303;-54
2020/12/09 16:20:31;;;;;;;47.35;25.08;;;;;;;;;;5072323;28;20220;-55
2020/12/09 16:23:05;;;;;;;36.67;21.02;;;;;;;;;;5053359;28;20273;-53
2020/12/09 16:28:43;;;;;;;36.15;21.05;;;;;;;;;;5063084;28;20303;-57
2020/12/09 16:31:38;;;;;;;35.67;20.73;;;;;;;;;;5072860;28;20204;-52
2020/12/09 16:34:15;;;;;;;40.85;23.10;;;;;;;;;;5054713;28;20210;-55
2020/12/09 16:42:46;;;;;;;32.58;20.52;;;;;;;;;;5067632;28;20264;-55
2020/12/09 16:45:14;;;;;;;36.45;19.38;;;;;;;;;;5060061;28;20201;-58
2020/12/09 16:47:42;;;;;;;37.97;22.33;;;;;;;;;;5058767;28;20222;-50
2020/12/09 16:50:26;;;;;;;36.38;19.98;;;;;;;;;;5060449;28;20220;-60
2020/12/09 16:53:09;;;;;;;37.28;21.45;;;;;;;;;;5066545;28;20201;-58
2020/12/09 16:55:44;;;;;;;34.83;20.17;;;;;;;;;;5064088;28;20217;-52
2020/12/09 16:58:49;;;;;;;34.63;20.17;;;;;;;;;;5068930;28;20269;-54
2020/12/09 17:07:59;;;;;;;32.38;20.80;;;;;;;;;;4933800;29;20297;-52
2020/12/09 17:10:50;;;;;;;32.00;19.88;;;;;;;;;;5007807;28;20226;-52
2020/12/09 17:13:35;;;;;;;37.03;20.70;;;;;;;;;;5007401;28;20266;-56
2020/12/09 17:16:02;;;;;;;40.65;22.70;;;;;;;;;;5039393;28;20237;-56
2020/12/09 17:18:31;;;;;;;38.67;20.50;;;;;;;;;;5069108;28;20223;-54
2020/12/09 17:24:51;;;;;;;35.30;20.60;;;;;;;;;;5061953;28;20221;-54
2020/12/09 17:27:31;;;;;;;36.60;21.58;;;;;;;;;;5038299;28;20225;-53
2020/12/09 17:33:13;;;;;;;37.20;22.33;;;;;;;;;;5045237;28;20220;-54
2020/12/09 17:35:50;;;;;;;32.67;20.60;;;;;;;;;;5048308;28;20197;-57
2020/12/09 17:38:24;;;;;;;35.28;22.17;;;;;;;;;;5045511;28;20225;-57
2020/12/09 17:41:06;;;;;;;38.53;23.33;;;;;;;;;;5040941;28;20205;-58
2020/12/09 17:43:43;;;;;;;44.15;23.45;;;;;;;;;;5026336;28;20216;-53
2020/12/09 17:52:09;;;;;;;35.75;20.58;;;;;;;;;;5050173;28;20219;-54
2020/12/09 17:54:59;;;;;;;33.15;20.50;;;;;;;;;;5050201;28;20216;-54
2020/12/09 18:01:02;;;;;;;35.15;20.52;;;;;;;;;;5067900;28;20188;-55
2020/12/09 18:03:33;;;;;;;35.00;21.25;;;;;;;;;;5066031;28;20223;-56
2020/12/09 18:06:13;;;;;;;34.47;20.80;;;;;;;;;;5057517;28;20291;-55
2020/12/09 18:08:51;;;;;;;41.17;20.67;;;;;;;;;;5038473;28;20248;-46
2020/12/09 18:11:32;;;;;;;39.20;21.27;;;;;;;;;;5035703;28;20228;-58
2020/12/09 18:14:37;;;;;;;39.40;21.30;;;;;;;;;;5046787;28;20213;-56
2020/12/09 18:17:17;;;;;;;37.10;21.52;;;;;;;;;;5051151;28;20197;-58
2020/12/09 18:22:44;;;;;;;31.92;16.33;;;;;;;;;;5043734;28;20221;-58
2020/12/09 18:25:14;;;;;;;26.20;15.35;;;;;;;;;;5054087;28;20236;-59